Time;durP1;ratioP1;P1;durP2;ratioP2;P2;SDS_P1;SDS_P2;PMS_P1;PMS_P2;Temp;Humidity;BMP_temperature;BMP_pressure;BME280_temperature;BME280_humidity;BME280_pressure;Samples;Min_cycle;Max_cycle;Signal;HPM_P1;HPM_P2
2021/12/03 00:00:38;;;;;;;0.10;0.10;;;3.60;99.90;;;;;;4992805;28;20045;-76
2021/12/03 00:03:06;;;;;;;0.10;0.10;;;3.60;99.90;;;;;;4991913;28;20084;-77
2021/12/03 00:05:33;;;;;;;2.10;1.95;;;3.60;99.90;;;;;;4991883;28;20058;-77
2021/12/03 00:07:59;;;;;;;0.35;0.30;;;3.60;99.90;;;;;;4992748;28;20077;-77
2021/12/03 00:10:26;;;;;;;0.30;0.30;;;3.60;99.90;;;;;;4991471;28;20035;-77
2021/12/03 00:12:55;;;;;;;0.00;0.00;;;3.60;99.90;;;;;;4991727;28;20088;-77
2021/12/03 00:15:23;;;;;;;0.05;0.05;;;3.50;99.90;;;;;;4991620;28;20039;-77
2021/12/03 00:17:50;;;;;;;0.35;0.35;;;3.60;99.90;;;;;;4992771;28;20046;-77
2021/12/03 00:20:17;;;;;;;0.55;0.55;;;3.60;99.90;;;;;;4991470;28;20117;-77
2021/12/03 00:22:48;;;;;;;0.05;0.05;;;3.50;99.90;;;;;;4992644;28;20038;-77
2021/12/03 00:25:15;;;;;;;0.13;0.13;;;3.50;99.90;;;;;;4991642;28;20070;-77
2021/12/03 00:27:41;;;;;;;0.00;0.00;;;3.50;99.90;;;;;;4991586;28;20030;-77
2021/12/03 00:30:11;;;;;;;0.10;0.10;;;3.50;99.90;;;;;;5007741;28;20043;-77
2021/12/03 00:32:38;;;;;;;0.05;0.05;;;3.50;99.90;;;;;;4993129;28;20036;-77
2021/12/03 00:35:06;;;;;;;0.10;0.10;;;3.50;99.90;;;;;;4992452;28;20057;-77
2021/12/03 00:37:32;;;;;;;0.47;0.47;;;3.50;99.90;;;;;;4992566;28;20035;-77
2021/12/03 00:39:58;;;;;;;0.65;0.45;;;3.50;99.90;;;;;;4991002;28;20036;-77
2021/12/03 00:42:26;;;;;;;0.10;0.10;;;3.40;99.90;;;;;;4992472;28;20039;-77
2021/12/03 00:44:55;;;;;;;0.10;0.10;;;3.40;99.90;;;;;;4992240;28;20121;-77
2021/12/03 00:47:22;;;;;;;0.00;0.00;;;3.40;99.90;;;;;;5010762;28;20089;-77
2021/12/03 00:49:48;;;;;;;0.10;0.10;;;3.40;99.90;;;;;;4995016;28;20030;-77
2021/12/03 00:52:14;;;;;;;0.15;0.15;;;3.40;99.90;;;;;;4994762;28;20030;-77
2021/12/03 00:54:40;;;;;;;0.20;0.20;;;3.50;99.90;;;;;;4996177;28;20390;-77
2021/12/03 00:57:07;;;;;;;1.02;0.65;;;3.50;99.90;;;;;;4996225;28;20034;-77
2021/12/03 00:59:33;;;;;;;0.10;0.10;;;3.60;99.90;;;;;;4995043;28;20034;-77
2021/12/03 01:01:59;;;;;;;0.20;0.20;;;3.60;99.90;;;;;;4994800;28;20035;-77
2021/12/03 01:04:25;;;;;;;1.67;1.60;;;3.50;99.90;;;;;;4995646;28;20037;-77
2021/12/03 01:06:51;;;;;;;0.10;0.10;;;3.60;99.90;;;;;;4995638;28;20034;-77
2021/12/03 01:09:17;;;;;;;0.35;0.35;;;3.50;99.90;;;;;;4994374;28;20379;-77
2021/12/03 01:11:43;;;;;;;0.00;0.00;;;3.50;99.90;;;;;;4995997;28;20118;-78
2021/12/03 01:14:09;;;;;;;1.85;0.65;;;3.40;99.90;;;;;;4994279;28;20446;-77
2021/12/03 01:16:35;;;;;;;0.10;0.10;;;3.50;99.90;;;;;;4994347;28;20077;-77
2021/12/03 01:19:03;;;;;;;0.10;0.10;;;3.50;99.90;;;;;;4995681;28;20070;-77
2021/12/03 01:21:29;;;;;;;0.10;0.10;;;3.60;99.90;;;;;;4994255;28;20030;-77
2021/12/03 01:23:55;;;;;;;0.17;0.15;;;3.50;99.90;;;;;;4995357;28;20034;-77
2021/12/03 01:26:23;;;;;;;0.10;0.10;;;3.50;99.90;;;;;;4994549;28;20029;-77
2021/12/03 01:28:49;;;;;;;0.38;0.38;;;3.50;99.90;;;;;;4994032;28;20035;-77
2021/12/03 01:31:16;;;;;;;0.20;0.20;;;3.50;99.90;;;;;;4994423;28;20487;-77
2021/12/03 01:33:44;;;;;;;0.05;0.05;;;3.50;99.90;;;;;;5010406;28;20034;-77
2021/12/03 01:36:10;;;;;;;0.10;0.10;;;3.40;99.90;;;;;;4995451;28;20069;-75
2021/12/03 01:38:37;;;;;;;0.05;0.05;;;3.40;99.90;;;;;;4994208;28;20027;-77
2021/12/03 01:41:03;;;;;;;0.00;0.00;;;3.40;99.90;;;;;;4995044;28;20077;-77
2021/12/03 01:43:30;;;;;;;0.10;0.10;;;3.50;99.90;;;;;;4994989;28;20077;-76
2021/12/03 01:46:01;;;;;;;0.10;0.10;;;3.30;99.90;;;;;;4995015;28;20031;-77
2021/12/03 01:48:30;;;;;;;0.38;0.38;;;3.30;99.90;;;;;;4995300;28;20430;-77
2021/12/03 01:50:57;;;;;;;0.00;0.00;;;3.30;99.90;;;;;;4994950;28;20034;-77
2021/12/03 01:53:30;;;;;;;0.00;0.00;;;3.30;99.90;;;;;;4995368;28;20061;-77
2021/12/03 01:56:06;;;;;;;0.45;0.45;;;3.20;99.90;;;;;;4995016;28;20057;-77
2021/12/03 01:58:32;;;;;;;0.00;0.00;;;3.20;99.90;;;;;;4994568;28;20030;-77
2021/12/03 02:01:05;;;;;;;0.10;0.10;;;3.20;99.90;;;;;;4994859;28;20034;-77
2021/12/03 02:03:34;;;;;;;0.20;0.20;;;3.20;99.90;;;;;;4994994;28;20088;-77
2021/12/03 02:06:03;;;;;;;0.08;0.08;;;3.10;99.90;;;;;;4993808;28;20076;-77
2021/12/03 02:08:30;;;;;;;0.65;0.65;;;3.10;99.90;;;;;;4995032;28;20096;-77
2021/12/03 02:10:57;;;;;;;0.00;0.00;;;3.10;99.90;;;;;;4994529;28;20031;-77
2021/12/03 02:13:23;;;;;;;0.35;0.35;;;3.10;99.90;;;;;;4994889;28;20027;-77
2021/12/03 02:15:49;;;;;;;0.00;0.00;;;3.10;99.90;;;;;;4994700;28;20471;-77
2021/12/03 02:18:17;;;;;;;0.10;0.10;;;3.10;99.90;;;;;;4994451;28;20061;-77
2021/12/03 02:20:56;;;;;;;0.75;0.75;;;3.00;99.90;;;;;;4994654;28;20039;-77
2021/12/03 02:23:22;;;;;;;0.10;0.10;;;2.90;99.90;;;;;;4994796;28;20031;-77
2021/12/03 02:25:50;;;;;;;0.10;0.10;;;2.80;99.90;;;;;;4994284;28;20084;-77
2021/12/03 02:28:20;;;;;;;0.63;0.63;;;2.80;99.90;;;;;;4994549;28;20109;-77
2021/12/03 02:30:48;;;;;;;0.10;0.10;;;2.80;99.90;;;;;;4994395;28;20034;-77
2021/12/03 02:33:15;;;;;;;0.10;0.10;;;2.80;99.90;;;;;;4994337;28;20109;-77
2021/12/03 02:35:43;;;;;;;0.10;0.10;;;2.70;99.90;;;;;;4994199;28;20038;-77
2021/12/03 02:38:12;;;;;;;0.17;0.17;;;2.70;99.90;;;;;;4994131;28;20034;-77
2021/12/03 02:40:38;;;;;;;1.40;1.35;;;2.60;99.90;;;;;;4994004;28;20487;-77
2021/12/03 02:43:04;;;;;;;0.47;0.47;;;2.60;99.90;;;;;;4993908;28;20031;-77
2021/12/03 02:45:30;;;;;;;1.27;0.88;;;2.40;99.90;;;;;;4993924;28;20051;-77
2021/12/03 02:47:59;;;;;;;0.10;0.10;;;2.40;99.90;;;;;;4993811;28;20498;-76
2021/12/03 02:50:26;;;;;;;0.10;0.10;;;2.40;99.90;;;;;;4994003;28;20038;-77
2021/12/03 02:52:53;;;;;;;0.10;0.10;;;2.50;99.90;;;;;;4993704;28;20387;-77
2021/12/03 02:55:20;;;;;;;0.10;0.10;;;2.30;99.90;;;;;;4993731;28;20038;-77
2021/12/03 02:57:46;;;;;;;0.10;0.10;;;2.30;99.90;;;;;;4994099;28;20423;-76
2021/12/03 03:00:16;;;;;;;0.10;0.10;;;2.30;99.90;;;;;;4993636;28;20041;-77
2021/12/03 03:02:43;;;;;;;0.10;0.10;;;2.30;99.90;;;;;;4993900;28;20030;-77
2021/12/03 03:05:11;;;;;;;0.40;0.38;;;2.20;99.90;;;;;;4993581;28;20034;-76
2021/12/03 03:07:38;;;;;;;0.10;0.10;;;2.20;99.90;;;;;;4993646;28;20031;-76
2021/12/03 03:10:09;;;;;;;0.80;0.63;;;2.20;99.90;;;;;;4992789;28;20368;-76
2021/12/03 03:12:37;;;;;;;0.10;0.10;;;2.20;99.90;;;;;;4993419;28;20034;-76
2021/12/03 03:15:04;;;;;;;0.65;0.65;;;2.20;99.90;;;;;;4993547;28;20088;-76
2021/12/03 03:17:31;;;;;;;0.45;0.45;;;2.20;99.90;;;;;;4993649;28;20034;-77
2021/12/03 03:19:59;;;;;;;0.10;0.10;;;2.20;99.90;;;;;;4992044;28;20034;-77
2021/12/03 03:22:26;;;;;;;0.10;0.10;;;2.20;99.90;;;;;;4993514;28;20052;-76
2021/12/03 03:24:55;;;;;;;0.10;0.10;;;2.30;99.90;;;;;;4993465;28;20065;-76
2021/12/03 03:27:21;;;;;;;0.65;0.65;;;2.20;99.90;;;;;;4993258;28;20026;-76
2021/12/03 03:29:48;;;;;;;0.75;0.75;;;2.00;99.90;;;;;;4993544;28;20141;-76
2021/12/03 03:32:16;;;;;;;0.10;0.10;;;2.10;99.90;;;;;;4993288;28;20066;-77
2021/12/03 03:34:42;;;;;;;0.10;0.10;;;2.10;99.90;;;;;;4992828;28;20407;-77
2021/12/03 03:37:09;;;;;;;0.10;0.10;;;2.00;99.90;;;;;;4992285;28;20030;-77
2021/12/03 03:39:36;;;;;;;0.10;0.10;;;2.00;99.90;;;;;;4992160;28;20030;-77
2021/12/03 03:42:02;;;;;;;0.00;0.00;;;2.00;99.90;;;;;;4992954;28;20037;-77
2021/12/03 03:44:28;;;;;;;0.00;0.00;;;2.10;99.90;;;;;;4992904;28;20549;-77
2021/12/03 03:46:55;;;;;;;1.40;1.05;;;2.10;99.90;;;;;;4992886;28;20035;-77
2021/12/03 03:49:23;;;;;;;0.10;0.10;;;2.00;99.90;;;;;;4993091;28;20122;-77
2021/12/03 03:51:50;;;;;;;0.10;0.10;;;1.90;99.90;;;;;;4993415;28;20041;-77
2021/12/03 03:54:18;;;;;;;0.98;0.95;;;1.90;99.90;;;;;;4991777;28;20485;-77
2021/12/03 03:56:45;;;;;;;0.03;0.03;;;1.90;99.90;;;;;;4992816;28;20398;-77
2021/12/03 03:59:11;;;;;;;2.58;2.40;;;1.90;99.90;;;;;;4992682;28;20632;-77
2021/12/03 04:01:37;;;;;;;0.73;0.73;;;1.90;99.90;;;;;;4993272;28;20078;-77
2021/12/03 04:04:03;;;;;;;0.10;0.10;;;1.80;99.90;;;;;;4992930;28;20050;-78
2021/12/03 04:06:29;;;;;;;0.10;0.10;;;1.80;99.90;;;;;;4992905;28;20664;-77
2021/12/03 04:08:55;;;;;;;0.10;0.10;;;1.60;99.90;;;;;;4993200;28;20037;-77
2021/12/03 04:11:24;;;;;;;0.10;0.10;;;1.60;99.90;;;;;;4992828;28;20034;-78
2021/12/03 04:13:50;;;;;;;0.30;0.30;;;1.60;99.90;;;;;;4993129;28;20039;-77
2021/12/03 04:16:17;;;;;;;0.05;0.05;;;1.60;99.90;;;;;;4992770;28;20034;-77
2021/12/03 04:18:42;;;;;;;0.10;0.10;;;1.50;99.90;;;;;;4992968;28;20566;-77
2021/12/03 04:21:11;;;;;;;0.10;0.10;;;1.50;99.90;;;;;;4995470;28;20117;-77
2021/12/03 04:23:37;;;;;;;0.40;0.40;;;1.60;99.90;;;;;;4996744;28;20073;-77
2021/12/03 04:26:03;;;;;;;0.10;0.10;;;1.50;99.90;;;;;;4996753;28;20026;-77
2021/12/03 04:28:29;;;;;;;0.13;0.13;;;1.40;99.90;;;;;;4996402;28;20030;-77
2021/12/03 04:30:55;;;;;;;0.10;0.10;;;1.30;99.90;;;;;;4996418;28;20049;-77
2021/12/03 04:33:21;;;;;;;0.25;0.25;;;1.30;99.90;;;;;;4996655;28;20041;-77
2021/12/03 04:35:47;;;;;;;0.10;0.10;;;1.20;99.90;;;;;;4996542;28;20054;-77
2021/12/03 04:38:13;;;;;;;2.22;1.10;;;1.10;99.90;;;;;;4996350;28;20046;-77
2021/12/03 04:40:40;;;;;;;0.10;0.10;;;1.00;99.90;;;;;;4996425;28;20188;-77
2021/12/03 04:43:07;;;;;;;0.10;0.10;;;1.10;99.90;;;;;;4996090;28;20132;-74
2021/12/03 04:45:33;;;;;;;0.10;0.10;;;1.10;99.90;;;;;;4998515;28;20042;-75
2021/12/03 04:48:04;;;;;;;1.10;1.08;;;1.00;99.90;;;;;;5012560;28;20057;-76
2021/12/03 04:50:34;;;;;;;0.10;0.10;;;0.80;99.90;;;;;;4994907;28;20391;-76
2021/12/03 04:53:00;;;;;;;0.20;0.20;;;0.80;99.90;;;;;;4995607;28;20032;-77
2021/12/03 04:55:27;;;;;;;0.10;0.10;;;0.80;99.90;;;;;;4995820;28;20138;-74
2021/12/03 04:57:53;;;;;;;0.10;0.10;;;0.90;99.90;;;;;;4995118;28;20030;-72
2021/12/03 05:00:38;;;;;;;0.52;0.40;;;0.90;99.90;;;;;;4995807;28;20048;-72
2021/12/03 05:03:04;;;;;;;0.20;0.20;;;1.00;99.90;;;;;;4995763;28;20395;-72
2021/12/03 05:05:32;;;;;;;0.10;0.10;;;1.00;99.90;;;;;;4994533;28;20035;-72
2021/12/03 05:08:02;;;;;;;0.10;0.10;;;0.90;99.90;;;;;;4994671;28;20498;-72
2021/12/03 05:10:34;;;;;;;0.00;0.00;;;0.90;99.90;;;;;;4994731;28;20057;-68
2021/12/03 05:13:15;;;;;;;0.10;0.10;;;0.90;99.90;;;;;;4994565;28;20069;-68
2021/12/03 05:15:45;;;;;;;0.10;0.10;;;0.80;99.90;;;;;;4995411;28;20033;-69
2021/12/03 05:18:19;;;;;;;0.10;0.10;;;0.70;99.90;;;;;;4994516;28;20038;-69
2021/12/03 05:20:47;;;;;;;0.10;0.10;;;0.30;99.90;;;;;;4994317;28;20467;-69
2021/12/03 05:23:14;;;;;;;0.30;0.30;;;0.20;99.90;;;;;;4994190;28;20033;-71
2021/12/03 05:25:44;;;;;;;0.10;0.10;;;0.10;99.90;;;;;;4994202;28;20042;-69
2021/12/03 05:28:14;;;;;;;0.10;0.10;;;0.10;99.90;;;;;;5010306;28;20027;-69
2021/12/03 05:30:40;;;;;;;0.10;0.10;;;0.00;99.90;;;;;;4994146;28;20038;-68
2021/12/03 05:33:07;;;;;;;0.10;0.10;;;0.00;99.90;;;;;;4993403;28;20058;-71
2021/12/03 05:35:35;;;;;;;0.15;0.15;;;0.00;99.90;;;;;;4994052;28;20488;-70
2021/12/03 05:38:04;;;;;;;0.10;0.10;;;0.00;99.90;;;;;;4995117;28;20031;-70
2021/12/03 05:40:31;;;;;;;0.10;0.10;;;0.00;99.90;;;;;;5010301;28;20045;-71
2021/12/03 05:42:57;;;;;;;0.15;0.15;;;-0.10;99.90;;;;;;4993176;28;20042;-70
2021/12/03 05:45:30;;;;;;;0.30;0.30;;;0.00;99.90;;;;;;5009666;28;20038;-70
2021/12/03 05:47:57;;;;;;;0.32;0.32;;;-0.10;99.90;;;;;;4995344;28;20026;-70
2021/12/03 05:50:24;;;;;;;0.90;0.75;;;-0.40;99.90;;;;;;5009968;28;20038;-71
2021/12/03 05:52:53;;;;;;;0.10;0.10;;;-0.40;99.90;;;;;;4993633;28;20042;-71
2021/12/03 05:55:20;;;;;;;0.35;0.35;;;-0.50;99.90;;;;;;4994721;28;20578;-70
2021/12/03 05:57:47;;;;;;;0.10;0.10;;;-0.50;99.90;;;;;;4994865;28;20089;-71
2021/12/03 06:00:22;;;;;;;0.20;0.20;;;-0.50;99.90;;;;;;4994531;28;20030;-70
2021/12/03 06:02:48;;;;;;;0.10;0.10;;;-0.40;99.90;;;;;;4993732;28;20130;-70
2021/12/03 06:05:14;;;;;;;0.30;0.30;;;-0.60;99.90;;;;;;4993175;28;20109;-71
2021/12/03 06:07:40;;;;;;;0.20;0.20;;;-0.60;99.90;;;;;;4993207;28;20113;-71
2021/12/03 06:10:07;;;;;;;0.10;0.10;;;-0.70;99.90;;;;;;4994306;28;20038;-72
2021/12/03 06:12:33;;;;;;;0.10;0.10;;;-0.70;99.90;;;;;;5009640;28;20042;-72
2021/12/03 06:14:59;;;;;;;0.10;0.10;;;-0.70;99.90;;;;;;5009521;28;20114;-72
2021/12/03 06:17:24;;;;;;;0.30;0.30;;;-0.80;99.90;;;;;;5009347;28;20034;-70
2021/12/03 06:19:50;;;;;;;0.55;0.55;;;-0.80;99.90;;;;;;4993034;28;20038;-71
2021/12/03 06:22:16;;;;;;;0.75;0.75;;;-0.80;99.90;;;;;;5009299;28;20034;-71
2021/12/03 06:24:42;;;;;;;0.20;0.20;;;-0.90;99.90;;;;;;5009196;28;20037;-71
2021/12/03 06:27:08;;;;;;;0.32;0.32;;;-0.90;99.90;;;;;;5009326;28;20038;-71
2021/12/03 06:29:33;;;;;;;0.10;0.10;;;-0.90;99.90;;;;;;5008809;28;20050;-71
2021/12/03 06:31:59;;;;;;;0.17;0.17;;;-0.90;99.90;;;;;;4993946;28;20034;-68
2021/12/03 06:34:25;;;;;;;2.65;1.77;;;-0.90;99.90;;;;;;4993725;28;20026;-71
2021/12/03 06:36:51;;;;;;;0.82;0.65;;;-0.90;99.90;;;;;;4993855;28;20125;-70
2021/12/03 06:39:16;;;;;;;0.10;0.10;;;-0.90;99.90;;;;;;4993709;28;20038;-71
2021/12/03 06:41:42;;;;;;;0.10;0.10;;;-0.80;99.90;;;;;;4994061;28;20038;-70
2021/12/03 06:44:08;;;;;;;0.10;0.10;;;-0.90;99.90;;;;;;4992274;28;20049;-72
2021/12/03 06:46:35;;;;;;;0.10;0.10;;;-0.90;99.90;;;;;;4993210;28;20034;-72
2021/12/03 06:49:02;;;;;;;0.75;0.75;;;-0.90;99.90;;;;;;4993388;28;20041;-71
2021/12/03 06:51:30;;;;;;;0.10;0.10;;;-0.90;99.90;;;;;;4992822;28;20133;-70
2021/12/03 06:54:00;;;;;;;0.38;0.38;;;-0.90;99.90;;;;;;4992426;28;20046;-71
2021/12/03 06:56:33;;;;;;;0.40;0.40;;;-0.90;99.90;;;;;;4991827;28;20479;-71
2021/12/03 06:59:00;;;;;;;0.47;0.47;;;-0.90;99.90;;;;;;4993630;28;20109;-71
2021/12/03 07:01:25;;;;;;;0.13;0.13;;;-0.80;99.90;;;;;;4993232;28;20141;-71
2021/12/03 07:03:52;;;;;;;0.10;0.10;;;-0.70;99.90;;;;;;4993904;28;20118;-71
2021/12/03 07:06:17;;;;;;;0.57;0.57;;;-0.70;99.90;;;;;;4992063;28;20109;-71
2021/12/03 07:08:43;;;;;;;0.17;0.17;;;-0.70;99.90;;;;;;4993435;28;20141;-71
2021/12/03 07:11:09;;;;;;;0.43;0.43;;;-0.80;99.90;;;;;;4991971;28;20034;-71
2021/12/03 07:13:35;;;;;;;0.10;0.10;;;-0.80;99.90;;;;;;4993767;28;20042;-71
2021/12/03 07:16:05;;;;;;;0.10;0.10;;;-0.80;99.90;;;;;;4993108;28;20436;-71
2021/12/03 07:18:31;;;;;;;0.10;0.10;;;-0.70;99.90;;;;;;4991942;28;20037;-71
2021/12/03 07:20:56;;;;;;;0.10;0.10;;;-0.70;99.90;;;;;;4992310;28;20109;-71
2021/12/03 07:23:22;;;;;;;0.20;0.20;;;-0.80;99.90;;;;;;4993122;28;20027;-71
2021/12/03 07:25:48;;;;;;;0.30;0.30;;;-0.80;99.90;;;;;;4993091;28;20101;-72
2021/12/03 07:28:15;;;;;;;0.10;0.10;;;-0.80;99.90;;;;;;4993070;28;20038;-71
2021/12/03 07:30:41;;;;;;;0.10;0.10;;;-0.80;99.90;;;;;;4993003;28;20034;-72
2021/12/03 07:33:11;;;;;;;0.30;0.30;;;-0.80;99.90;;;;;;4992969;28;20084;-72
2021/12/03 07:35:37;;;;;;;1.33;1.30;;;-0.90;99.90;;;;;;4992127;28;20137;-70
2021/12/03 07:38:03;;;;;;;2.85;2.17;;;-0.90;99.90;;;;;;4991807;28;20037;-72
2021/12/03 07:40:29;;;;;;;0.30;0.30;;;-0.90;99.90;;;;;;4992800;28;20117;-72
2021/12/03 07:42:55;;;;;;;0.22;0.22;;;-0.90;99.90;;;;;;4990716;28;20070;-72
2021/12/03 07:45:21;;;;;;;0.25;0.25;;;-0.80;99.90;;;;;;4989838;28;20078;-72
2021/12/03 07:47:47;;;;;;;0.10;0.10;;;-0.70;99.90;;;;;;4991367;28;20034;-72
2021/12/03 07:50:14;;;;;;;0.35;0.35;;;-0.60;99.90;;;;;;4992809;28;20047;-72
2021/12/03 07:52:40;;;;;;;0.50;0.50;;;-0.60;99.90;;;;;;4993183;28;20070;-71
2021/12/03 07:55:07;;;;;;;0.20;0.20;;;-0.60;99.90;;;;;;4992286;28;20050;-71
2021/12/03 07:57:33;;;;;;;0.75;0.75;;;-0.50;99.90;;;;;;4975467;28;20034;-71
2021/12/03 07:59:59;;;;;;;0.10;0.10;;;-0.40;99.90;;;;;;4992663;28;20484;-71
2021/12/03 08:02:26;;;;;;;1.17;0.93;;;-0.20;99.90;;;;;;4991456;28;20026;-71
2021/12/03 08:04:52;;;;;;;1.00;0.98;;;-0.20;99.90;;;;;;4991750;28;20088;-71
2021/12/03 08:07:18;;;;;;;0.52;0.50;;;-0.10;99.90;;;;;;4991230;28;20113;-71
2021/12/03 08:09:45;;;;;;;0.75;0.75;;;0.00;99.90;;;;;;4992813;28;20034;-72
2021/12/03 08:12:11;;;;;;;0.80;0.80;;;0.10;99.90;;;;;;4992756;28;20037;-72
2021/12/03 08:14:37;;;;;;;0.13;0.13;;;0.20;99.90;;;;;;4991284;28;20034;-73
2021/12/03 08:17:03;;;;;;;0.10;0.10;;;0.20;99.90;;;;;;4992651;28;20096;-72
2021/12/03 08:19:29;;;;;;;1.48;1.33;;;0.30;99.90;;;;;;4992800;28;20038;-73
2021/12/03 08:21:54;;;;;;;0.20;0.20;;;0.40;99.90;;;;;;4993016;28;20672;-72
2021/12/03 08:24:20;;;;;;;0.30;0.30;;;0.50;99.90;;;;;;4991343;28;20034;-72
2021/12/03 08:26:46;;;;;;;0.10;0.10;;;0.60;99.90;;;;;;4992583;28;20042;-72
2021/12/03 08:29:12;;;;;;;0.22;0.22;;;0.60;99.90;;;;;;4991164;28;20554;-72
2021/12/03 08:31:39;;;;;;;0.40;0.40;;;0.70;99.90;;;;;;4991629;28;20061;-72
2021/12/03 08:34:06;;;;;;;0.10;0.10;;;0.90;99.90;;;;;;4992875;28;20062;-72
2021/12/03 08:36:32;;;;;;;0.20;0.20;;;0.80;99.90;;;;;;4992223;28;20122;-72
2021/12/03 08:38:57;;;;;;;0.10;0.10;;;0.70;99.90;;;;;;4992355;28;20117;-72
2021/12/03 08:41:23;;;;;;;0.10;0.10;;;0.80;99.90;;;;;;4992470;28;20044;-72
2021/12/03 08:43:50;;;;;;;0.10;0.10;;;0.80;99.90;;;;;;4992414;28;20119;-71
2021/12/03 08:46:25;;;;;;;0.17;0.17;;;0.90;99.90;;;;;;4992323;28;20077;-72
2021/12/03 08:48:51;;;;;;;0.00;0.00;;;0.90;99.90;;;;;;4991034;28;20027;-71
2021/12/03 08:56:29;;;;;;;0.10;0.10;;;1.00;99.90;;;;;;4991219;28;20045;-72
2021/12/03 08:58:55;;;;;;;0.60;0.60;;;1.00;99.90;;;;;;4990816;28;20031;-72
2021/12/03 09:01:21;;;;;;;0.30;0.30;;;1.10;99.90;;;;;;4990851;28;20034;-72
2021/12/03 09:03:47;;;;;;;0.20;0.20;;;1.20;99.90;;;;;;4992284;28;20109;-71
2021/12/03 09:06:14;;;;;;;0.20;0.20;;;1.20;99.90;;;;;;4991005;28;20030;-72
2021/12/03 09:08:39;;;;;;;0.10;0.10;;;1.20;99.90;;;;;;4995776;28;20030;-72
2021/12/03 09:11:05;;;;;;;0.10;0.10;;;1.20;99.90;;;;;;4995778;28;20039;-72
2021/12/03 09:13:32;;;;;;;0.35;0.35;;;1.20;99.90;;;;;;4994530;28;20045;-71
2021/12/03 09:16:04;;;;;;;0.20;0.20;;;1.20;99.90;;;;;;4995534;28;20038;-72
2021/12/03 09:18:50;;;;;;;5.47;2.55;;;1.20;99.90;;;;;;4994155;28;20054;-71
2021/12/03 09:26:16;;;;;;;0.10;0.10;;;1.40;99.90;;;;;;4995356;28;20544;-71
2021/12/03 09:28:50;;;;;;;0.25;0.25;;;1.40;99.90;;;;;;4995473;28;20027;-71
2021/12/03 09:31:17;;;;;;;0.63;0.63;;;1.40;99.90;;;;;;4993917;28;20042;-72
2021/12/03 09:33:46;;;;;;;0.10;0.10;;;1.40;99.90;;;;;;4995055;28;20026;-72
2021/12/03 09:36:13;;;;;;;0.10;0.10;;;1.50;99.90;;;;;;4995324;28;20437;-72
2021/12/03 09:38:39;;;;;;;7.88;3.40;;;1.50;99.90;;;;;;4995087;28;20034;-72
2021/12/03 09:41:16;;;;;;;0.10;0.10;;;1.50;99.90;;;;;;4995114;28;20511;-72
2021/12/03 09:43:46;;;;;;;0.10;0.10;;;1.60;99.90;;;;;;4994140;28;20044;-71
2021/12/03 09:46:26;;;;;;;0.20;0.20;;;1.60;99.90;;;;;;4994794;28;20042;-71
2021/12/03 09:57:18;;;;;;;0.03;0.03;;;1.60;99.90;;;;;;4995123;28;20049;-72
2021/12/03 10:11:49;;;;;;;0.13;0.13;;;1.80;99.90;;;;;;4994453;28;20076;-72
2021/12/03 10:40:45;;;;;;;0.10;0.10;;;1.90;99.90;;;;;;4993857;28;20464;-71
2021/12/03 10:44:11;;;;;;;0.10;0.10;;;1.90;99.90;;;;;;4992832;28;20471;-71
2021/12/03 10:49:27;;;;;;;0.68;0.68;;;1.90;99.90;;;;;;4993991;28;20518;-72
2021/12/03 11:11:39;;;;;;;0.40;0.40;;;2.20;99.90;;;;;;4993430;28;20034;-73
2021/12/03 11:15:05;;;;;;;0.00;0.00;;;2.20;99.90;;;;;;4993539;28;20058;-73
2021/12/03 11:54:12;;;;;;;0.10;0.10;;;2.80;99.90;;;;;;4992839;28;20041;-72
2021/12/03 12:44:39;;;;;;;0.10;0.10;;;3.20;99.90;;;;;;4995148;28;20046;-72
2021/12/03 13:09:23;;;;;;;0.10;0.10;;;3.10;99.90;;;;;;4994846;28;20034;-72
2021/12/03 13:20:19;;;;;;;0.60;0.20;;;3.40;99.90;;;;;;5015579;28;20054;-72
2021/12/03 13:25:27;;;;;;;0.28;0.25;;;3.50;99.90;;;;;;4995507;28;20137;-72
2021/12/03 13:35:07;;;;;;;0.10;0.10;;;3.60;99.90;;;;;;4998304;28;20043;-73
2021/12/03 14:46:54;;;;;;;0.25;0.25;;;3.50;99.90;;;;;;4992629;28;20053;-73
2021/12/03 14:52:14;;;;;;;1.15;1.08;;;3.40;99.90;;;;;;4993414;28;20402;-73
2021/12/03 14:54:49;;;;;;;0.10;0.10;;;3.40;99.90;;;;;;4992429;28;20579;-73
2021/12/03 15:00:18;;;;;;;0.05;0.05;;;3.20;99.90;;;;;;4993591;28;20085;-73
2021/12/03 15:03:10;;;;;;;1.08;0.65;;;3.20;99.90;;;;;;4992419;28;20026;-73
2021/12/03 15:08:22;;;;;;;0.10;0.10;;;3.20;99.90;;;;;;4993478;28;20394;-73
2021/12/03 15:14:06;;;;;;;0.70;0.70;;;3.10;99.90;;;;;;4993516;28;20038;-71
2021/12/03 15:35:21;;;;;;;0.90;0.63;;;2.90;99.90;;;;;;4992000;28;20297;-72
2021/12/03 15:52:10;;;;;;;0.10;0.10;;;3.00;99.90;;;;;;4992763;28;20074;-67
2021/12/03 16:03:54;;;;;;;0.32;0.30;;;3.10;99.90;;;;;;4991586;28;20096;-69
2021/12/03 16:08:27;;;;;;;0.55;0.55;;;3.00;99.90;;;;;;4992773;28;20039;-70
2021/12/03 16:25:08;;;;;;;0.22;0.22;;;3.00;99.90;;;;;;4989363;28;20182;-71
2021/12/03 16:46:56;;;;;;;0.30;0.30;;;2.90;99.90;;;;;;5015813;28;20034;-77
2021/12/03 16:52:07;;;;;;;1.20;0.95;;;2.80;99.90;;;;;;4995950;28;20057;-65
2021/12/03 16:56:59;;;;;;;0.10;0.10;;;2.80;99.90;;;;;;4995956;28;20041;-70
2021/12/03 16:59:27;;;;;;;0.10;0.10;;;2.80;99.90;;;;;;4996059;28;20430;-68
2021/12/03 17:02:09;;;;;;;0.45;0.45;;;2.80;99.90;;;;;;4995622;28;20045;-66
2021/12/03 18:00:00;;;;;;;0.10;0.10;;;3.30;99.90;;;;;;5001198;28;20038;-75
2021/12/03 18:02:36;;;;;;;0.10;0.10;;;3.40;99.90;;;;;;4993538;28;20031;-75
2021/12/03 18:18:24;;;;;;;0.90;0.90;;;3.50;99.90;;;;;;4993363;28;20054;-74
2021/12/03 18:49:13;;;;;;;0.10;0.10;;;3.60;99.90;;;;;;5012284;28;20034;-67
2021/12/03 18:51:46;;;;;;;0.10;0.10;;;3.60;99.90;;;;;;5007731;28;20525;-67
2021/12/03 18:56:18;;;;;;;0.10;0.10;;;3.70;99.90;;;;;;4993477;28;20108;-69
2021/12/03 18:58:51;;;;;;;0.00;0.00;;;3.70;99.90;;;;;;4993678;28;20027;-69
2021/12/03 19:01:19;;;;;;;0.40;0.40;;;3.70;99.90;;;;;;5007083;28;20033;-69
2021/12/03 19:06:24;;;;;;;0.13;0.13;;;3.70;99.90;;;;;;4999719;28;20038;-68
2021/12/03 19:09:10;;;;;;;0.52;0.52;;;3.70;99.90;;;;;;4992383;28;20050;-68
2021/12/03 19:12:11;;;;;;;0.10;0.10;;;3.70;99.90;;;;;;4993645;28;20041;-69
2021/12/03 19:14:33;;;;;;;0.00;0.00;;;3.70;99.90;;;;;;4991029;28;20558;-68
2021/12/03 19:16:59;;;;;;;;;;;3.70;99.90;;;;;;4992244;28;20247;-68
2021/12/03 19:19:27;;;;;;;0.20;0.20;;;3.70;99.90;;;;;;4992092;28;19976;-69
2021/12/03 19:21:53;;;;;;;0.22;0.22;;;3.60;99.90;;;;;;4993559;28;20085;-69
2021/12/03 19:24:19;;;;;;;0.13;0.13;;;3.60;99.90;;;;;;4993454;28;20105;-69
2021/12/03 19:26:45;;;;;;;0.00;0.00;;;3.70;99.90;;;;;;4991967;28;20467;-68
2021/12/03 19:29:15;;;;;;;0.10;0.10;;;3.70;99.90;;;;;;4993533;28;20035;-68
2021/12/03 19:31:42;;;;;;;0.57;0.52;;;3.60;99.90;;;;;;4991810;28;20545;-68
2021/12/03 19:34:10;;;;;;;0.10;0.10;;;3.60;99.90;;;;;;4992034;28;20399;-68
2021/12/03 19:36:42;;;;;;;0.10;0.10;;;3.60;99.90;;;;;;4993012;28;20498;-68
2021/12/03 19:39:11;;;;;;;0.00;0.00;;;3.70;99.90;;;;;;4991917;28;20378;-68
2021/12/03 19:44:32;;;;;;;0.00;0.00;;;3.70;99.90;;;;;;4991829;28;20093;-68
2021/12/03 19:46:58;;;;;;;0.95;0.95;;;3.60;99.90;;;;;;4992782;28;20058;-68
2021/12/03 19:51:56;;;;;;;0.00;0.00;;;3.70;99.90;;;;;;4992050;28;20041;-69
2021/12/03 19:54:23;;;;;;;0.10;0.10;;;3.60;99.90;;;;;;4991808;28;20034;-69
2021/12/03 19:56:50;;;;;;;0.15;0.15;;;3.70;99.90;;;;;;4991415;28;20040;-68
2021/12/03 19:59:19;;;;;;;0.10;0.10;;;3.70;99.90;;;;;;4993076;28;20038;-69
2021/12/03 20:01:46;;;;;;;0.00;0.00;;;3.70;99.90;;;;;;5011056;28;20557;-69
2021/12/03 20:04:14;;;;;;;0.20;0.20;;;3.70;99.90;;;;;;5011237;28;20026;-69
2021/12/03 20:06:44;;;;;;;0.08;0.08;;;3.70;99.90;;;;;;5011238;28;20462;-68
2021/12/03 20:09:17;;;;;;;0.10;0.10;;;3.70;99.90;;;;;;5011412;28;20505;-68
2021/12/03 20:11:47;;;;;;;0.20;0.20;;;3.80;99.90;;;;;;5010883;28;20030;-67
2021/12/03 20:14:16;;;;;;;0.00;0.00;;;3.70;99.90;;;;;;4995385;28;20542;-68
2021/12/03 20:16:56;;;;;;;0.00;0.00;;;3.80;99.90;;;;;;4995326;28;20044;-68
2021/12/03 20:27:40;;;;;;;0.45;0.40;;;3.80;99.90;;;;;;4992500;28;20022;-68
2021/12/03 20:30:14;;;;;;;0.00;0.00;;;3.90;99.90;;;;;;4992615;28;20069;-68
2021/12/03 20:32:48;;;;;;;0.00;0.00;;;3.90;99.90;;;;;;4991049;28;20446;-68
2021/12/03 20:36:25;;;;;;;0.40;0.40;;;3.80;99.90;;;;;;4991308;28;20069;-68
2021/12/03 20:38:12;;;;;;;0.00;0.00;;;3.80;99.90;;;;;;4995845;28;20112;-70
2021/12/03 20:40:38;;;;;;;4.95;0.82;;;3.80;99.90;;;;;;4992148;28;20034;-68
2021/12/03 20:51:11;;;;;;;0.10;0.10;;;3.80;99.90;;;;;;5006781;28;20065;-69
2021/12/03 20:59:32;;;;;;;0.10;0.10;;;3.90;99.90;;;;;;5004816;28;20031;-68
2021/12/03 21:09:53;;;;;;;0.20;0.20;;;3.80;99.90;;;;;;4995937;28;20030;-69
2021/12/03 21:12:26;;;;;;;0.03;0.03;;;3.80;99.90;;;;;;4995508;28;20462;-69
2021/12/03 21:20:23;;;;;;;0.13;0.13;;;3.80;99.90;;;;;;5007780;28;20046;-70
2021/12/03 21:22:53;;;;;;;0.10;0.10;;;3.90;99.90;;;;;;5009777;28;20031;-67
2021/12/03 21:25:25;;;;;;;0.00;0.00;;;3.90;99.90;;;;;;5009991;28;20034;-70
2021/12/03 21:27:57;;;;;;;0.10;0.10;;;3.90;99.90;;;;;;5010696;28;20073;-68
2021/12/03 21:33:32;;;;;;;0.10;0.10;;;3.90;99.90;;;;;;5010004;28;20056;-68
2021/12/03 21:41:26;;;;;;;0.10;0.10;;;3.90;99.90;;;;;;4995010;28;20264;-69